createdAt,value
2022-11-13T00:04:33.430Z,4.11
2022-11-13T00:09:36.308Z,4.05
2022-11-13T00:14:39.177Z,4.01
2022-11-13T00:19:42.562Z,3.96
2022-11-13T00:24:46.471Z,3.89
2022-11-13T00:29:49.398Z,3.82
2022-11-13T00:34:53.046Z,3.78
2022-11-13T00:39:59.620Z,3.72
2022-11-13T00:45:02.668Z,3.67
2022-11-13T00:50:06.038Z,3.61
2022-11-13T00:55:09.184Z,3.54
2022-11-13T01:00:12.815Z,3.49
2022-11-13T01:05:15.698Z,3.43
2022-11-13T01:10:18.773Z,3.41
2022-11-13T01:15:21.669Z,3.38
2022-11-13T01:20:26.014Z,3.35
2022-11-13T01:25:29.508Z,3.33
2022-11-13T01:30:32.788Z,3.27
2022-11-13T01:35:35.707Z,3.25
2022-11-13T01:40:48.391Z,3.17
2022-11-13T01:46:00.459Z,3.13
2022-11-13T01:51:09.707Z,3.07
2022-11-13T01:56:13.302Z,3.02
2022-11-13T02:01:16.045Z,3.02
2022-11-13T02:06:21.914Z,3.03
2022-11-13T02:11:25.663Z,3.00
2022-11-13T02:16:32.264Z,2.93
2022-11-13T02:21:53.537Z,2.93
2022-11-13T02:27:02.994Z,2.85
2022-11-13T02:32:06.010Z,2.79
2022-11-13T02:37:09.692Z,2.71
2022-11-13T02:42:12.515Z,2.65
2022-11-13T02:47:15.442Z,2.54
2022-11-13T02:52:18.152Z,2.46
2022-11-13T02:57:21.104Z,2.36
2022-11-13T03:02:24.499Z,2.30
2022-11-13T03:07:27.719Z,2.33
2022-11-13T03:12:30.836Z,2.42
2022-11-13T03:17:35.200Z,2.60
2022-11-13T03:22:38.087Z,2.82
2022-11-13T03:27:40.905Z,3.00
2022-11-13T03:32:43.873Z,3.21
2022-11-13T03:37:46.912Z,3.40
2022-11-13T03:42:49.768Z,3.60
2022-11-13T03:47:52.654Z,3.68
2022-11-13T03:52:55.570Z,3.73
2022-11-13T03:57:58.465Z,3.78
2022-11-13T04:03:01.582Z,3.87
2022-11-13T04:08:04.829Z,3.92
2022-11-13T04:13:07.957Z,3.91
2022-11-13T04:18:10.802Z,3.89
2022-11-13T04:23:15.997Z,3.82
2022-11-13T04:28:18.990Z,3.78
2022-11-13T04:33:22.185Z,3.74
2022-11-13T04:38:25.199Z,3.73
2022-11-13T04:43:28.303Z,3.68
2022-11-13T04:48:31.481Z,3.66
2022-11-13T04:53:34.798Z,3.71
2022-11-13T04:58:37.522Z,3.72
2022-11-13T05:03:40.411Z,3.74
2022-11-13T05:08:43.256Z,3.72
2022-11-13T05:13:46.828Z,3.65
2022-11-13T05:18:50.266Z,3.61
2022-11-13T05:23:53.133Z,3.48
2022-11-13T05:29:00.556Z,3.42
2022-11-13T05:34:06.319Z,3.37
2022-11-13T05:39:09.404Z,3.37
2022-11-13T05:44:12.332Z,3.36
2022-11-13T05:49:15.661Z,3.44
2022-11-13T05:54:18.536Z,3.47
2022-11-13T05:59:21.452Z,3.57
2022-11-13T06:04:24.326Z,3.63
2022-11-13T06:09:27.436Z,3.73
2022-11-13T06:14:30.245Z,3.83
2022-11-13T06:19:32.959Z,3.89
2022-11-13T06:24:36.429Z,3.95
2022-11-13T06:29:39.564Z,4.01
2022-11-13T06:34:42.766Z,4.05
2022-11-13T06:39:45.511Z,4.13
2022-11-13T06:44:48.421Z,4.17
2022-11-13T06:49:51.302Z,4.23
2022-11-13T06:54:54.230Z,4.28
2022-11-13T06:59:57.473Z,4.29
2022-11-13T07:05:00.577Z,4.41
2022-11-13T07:10:03.529Z,4.50
2022-11-13T07:15:06.999Z,4.56
2022-11-13T07:20:10.758Z,4.56
2022-11-13T07:25:14.109Z,4.69
2022-11-13T07:30:18.031Z,4.81
2022-11-13T07:35:21.397Z,4.93
2022-11-13T07:40:24.728Z,5.06
2022-11-13T07:45:28.786Z,5.12
2022-11-13T07:50:36.167Z,5.15
2022-11-13T07:55:39.104Z,5.16
2022-11-13T08:00:42.376Z,5.24
2022-11-13T08:05:45.668Z,5.32
2022-11-13T08:10:48.599Z,5.41
2022-11-13T08:15:51.502Z,5.51
2022-11-13T08:20:54.909Z,5.70
2022-11-13T08:25:58.508Z,5.80
2022-11-13T08:31:03.101Z,5.96
2022-11-13T08:36:06.793Z,6.03
2022-11-13T08:41:10.074Z,6.09
2022-11-13T08:46:12.914Z,6.17
2022-11-13T08:51:16.881Z,6.29
2022-11-13T08:56:20.058Z,6.39
2022-11-13T09:01:22.970Z,6.52
2022-11-13T09:06:26.120Z,6.61
2022-11-13T09:11:31.548Z,6.70
2022-11-13T09:16:34.557Z,6.82
2022-11-13T09:21:37.290Z,6.87
2022-11-13T09:26:40.211Z,6.85
2022-11-13T09:31:43.047Z,7.00
2022-11-13T09:36:46.654Z,7.11
2022-11-13T09:42:22.618Z,7.28
2022-11-13T09:47:37.516Z,7.35
2022-11-13T09:52:44.363Z,7.49
2022-11-13T09:58:06.956Z,7.61
2022-11-13T10:04:00.624Z,7.80
2022-11-13T10:09:28.507Z,7.98
2022-11-13T10:14:46.023Z,8.14
2022-11-13T10:20:16.195Z,8.35
2022-11-13T10:25:24.053Z,8.44
2022-11-13T10:30:29.690Z,8.41
2022-11-13T10:35:38.495Z,8.41
2022-11-13T10:40:41.561Z,8.41
2022-11-13T10:45:59.466Z,8.35
2022-11-13T10:51:29.240Z,8.37
2022-11-13T10:56:37.588Z,8.46
2022-11-13T11:01:42.671Z,8.55
2022-11-13T11:07:18.464Z,8.67
2022-11-13T11:12:30.179Z,8.71
2022-11-13T11:18:01.582Z,8.84
2022-11-13T11:23:31.152Z,8.96
2022-11-13T11:29:00.512Z,9.00
2022-11-13T11:34:16.217Z,9.01
2022-11-13T11:39:48.460Z,9.12
2022-11-13T11:45:04.917Z,9.22
2022-11-13T11:50:18.796Z,9.30
2022-11-13T11:56:04.805Z,9.34
2022-11-13T12:01:37.408Z,9.42
2022-11-13T12:07:00.342Z,9.49
2022-11-13T12:12:18.254Z,9.52
2022-11-13T12:17:56.034Z,9.49
2022-11-13T12:23:28.861Z,9.42
2022-11-13T12:29:06.450Z,9.39
2022-11-13T12:34:34.459Z,9.50
2022-11-13T12:40:00.399Z,9.52
2022-11-13T12:45:28.199Z,9.50
2022-11-13T12:50:33.019Z,9.48
2022-11-13T12:55:40.816Z,9.49
2022-11-13T13:00:58.948Z,9.63
2022-11-13T13:06:08.326Z,9.73
2022-11-13T13:11:49.056Z,9.89
2022-11-13T13:16:52.116Z,9.98
2022-11-13T13:21:56.129Z,9.94
2022-11-13T13:27:01.482Z,9.85
2022-11-13T13:32:27.254Z,9.74
2022-11-13T13:38:08.268Z,9.60
2022-11-13T13:43:41.346Z,9.45
2022-11-13T13:48:47.897Z,9.33
2022-11-13T13:53:51.557Z,9.23
2022-11-13T13:58:55.171Z,9.16
2022-11-13T14:04:18.849Z,9.09
2022-11-13T14:09:26.549Z,9.01
2022-11-13T14:14:31.100Z,8.95
2022-11-13T14:19:34.149Z,8.89
2022-11-13T14:24:53.667Z,8.78
2022-11-13T14:30:01.569Z,8.61
2022-11-13T14:35:08.066Z,8.41
2022-11-13T14:40:33.269Z,8.20
2022-11-13T14:45:36.382Z,8.00
2022-11-13T14:50:51.212Z,7.79
2022-11-13T14:56:00.541Z,7.63
2022-11-13T15:01:25.435Z,7.43
2022-11-13T15:06:39.865Z,7.23
2022-11-13T15:11:43.416Z,7.05
2022-11-13T15:16:48.755Z,6.89
2022-11-13T15:22:25.293Z,6.74
2022-11-13T15:27:19.263Z,6.56
2022-11-13T15:32:22.202Z,6.38
2022-11-13T15:37:25.748Z,6.24
2022-11-13T15:42:34.714Z,6.08
2022-11-13T15:47:37.955Z,5.94
2022-11-13T15:52:45.087Z,5.78
2022-11-13T15:57:48.785Z,5.62
2022-11-13T16:02:57.313Z,5.48
2022-11-13T16:08:00.230Z,5.33
2022-11-13T16:13:03.612Z,5.20
2022-11-13T16:18:15.824Z,5.05
2022-11-13T16:23:19.032Z,4.92
2022-11-13T16:28:22.010Z,4.79
2022-11-13T16:33:24.810Z,4.67
2022-11-13T16:38:28.476Z,4.52
2022-11-13T16:43:31.353Z,4.40
2022-11-13T16:48:34.447Z,4.32
2022-11-13T16:53:37.285Z,4.25
2022-11-13T16:58:40.268Z,4.18
2022-11-13T17:03:43.849Z,4.14
2022-11-13T17:08:51.067Z,4.08
2022-11-13T17:13:56.993Z,4.03
2022-11-13T17:19:00.335Z,4.02
2022-11-13T17:24:03.906Z,4.02
2022-11-13T17:29:07.379Z,4.01
2022-11-13T17:34:10.308Z,3.98
2022-11-13T17:39:13.236Z,3.93
2022-11-13T17:44:17.525Z,3.87
2022-11-13T17:49:21.076Z,3.80
2022-11-13T17:54:25.380Z,3.73
2022-11-13T17:59:28.562Z,3.65
2022-11-13T18:04:31.222Z,3.57
2022-11-13T18:09:35.246Z,3.49
2022-11-13T18:14:38.114Z,3.42
2022-11-13T18:19:40.959Z,3.34
2022-11-13T18:24:44.091Z,3.26
2022-11-13T18:29:47.065Z,3.20
2022-11-13T18:34:49.974Z,3.16
2022-11-13T18:39:53.377Z,3.13
2022-11-13T18:44:56.273Z,3.08
2022-11-13T18:49:59.240Z,3.07
2022-11-13T18:55:02.331Z,3.08
2022-11-13T19:00:05.857Z,3.06
2022-11-13T19:05:09.676Z,3.12
2022-11-13T19:10:12.898Z,3.20
2022-11-13T19:15:15.894Z,3.29
2022-11-13T19:20:18.947Z,3.38
2022-11-13T19:25:22.720Z,3.49
2022-11-13T19:30:25.737Z,3.59
2022-11-13T19:35:28.711Z,3.67
2022-11-13T19:40:31.824Z,3.74
2022-11-13T19:45:36.166Z,3.82
2022-11-13T19:50:39.483Z,3.86
2022-11-13T19:55:42.820Z,3.92
2022-11-13T20:00:45.712Z,3.94
2022-11-13T20:05:54.708Z,3.99
2022-11-13T20:11:10.456Z,4.04
2022-11-13T20:16:16.008Z,4.07
2022-11-13T20:21:30.200Z,4.13
2022-11-13T20:26:33.250Z,4.14
2022-11-13T20:31:36.329Z,4.17
2022-11-13T20:36:39.268Z,4.18
2022-11-13T20:41:42.761Z,4.22
2022-11-13T20:46:45.727Z,4.24
2022-11-13T20:51:50.634Z,4.28
2022-11-13T20:56:56.470Z,4.27
2022-11-13T21:01:59.613Z,4.30
2022-11-13T21:07:02.570Z,4.27
2022-11-13T21:12:05.870Z,4.30
2022-11-13T21:17:08.736Z,4.30
2022-11-13T21:22:11.614Z,4.24
2022-11-13T21:27:14.535Z,4.23
2022-11-13T21:32:17.451Z,4.21
2022-11-13T21:37:20.339Z,4.21
2022-11-13T21:42:23.191Z,4.18
2022-11-13T21:47:26.203Z,4.13
2022-11-13T21:52:29.525Z,4.05
2022-11-13T21:57:32.409Z,4.01
2022-11-13T22:02:35.475Z,3.91
2022-11-13T22:07:38.345Z,3.83
2022-11-13T22:12:41.281Z,3.75
2022-11-13T22:17:44.363Z,3.79
2022-11-13T22:22:47.255Z,3.76
2022-11-13T22:27:49.885Z,3.79
2022-11-13T22:32:52.759Z,3.78
2022-11-13T22:37:55.611Z,3.77
2022-11-13T22:42:59.603Z,3.77
2022-11-13T22:48:02.492Z,3.74
2022-11-13T22:53:05.347Z,3.72
2022-11-13T22:58:08.150Z,3.69
2022-11-13T23:03:11.072Z,3.60
2022-11-13T23:08:13.922Z,3.51
2022-11-13T23:13:16.957Z,3.40
2022-11-13T23:18:19.896Z,3.26
2022-11-13T23:23:22.772Z,3.08
2022-11-13T23:28:26.183Z,2.91
2022-11-13T23:33:29.259Z,2.74
2022-11-13T23:38:32.428Z,2.56
2022-11-13T23:48:58.483Z,2.33
2022-11-13T23:54:01.513Z,2.21
2022-11-13T23:59:04.443Z,2.10
